Spring Creek, Colorado
Current Conditions -  °F | °C
As of 10:54 AM on Tuesday 21 Oct 2014 (Local Time) from K7BM Reporting Station
Scattered Clouds Scattered Clouds  
Wind Chill: 52°   Ceiling: Unl
Heat Index: 52°   Visibility: 10mi
Dew Point: 34°   Wind: 3mph
Humidity: 50%   Direction: 100°E
Pressure: 30.3"   Gusts: NA
Location:  38.7752°N, 106.586°W
Report Text: K7BM 211654Z AUTO 10003KT 10SM SCT043 SCT050 SCT070 11/01 A3030 RMK AO2
Loading
Personal Weather Stations






























Interactive Weather Map
Tropical Storm Tracking
New forecast layout! Learn more

10-Day Weather Forecast

Advertisements
Track Severe Weather on mobile